Time;durP1;ratioP1;P1;durP2;ratioP2;P2;SDS_P1;SDS_P2;PMS_P1;PMS_P2;Temp;Humidity;BMP_temperature;BMP_pressure;BME280_temperature;BME280_humidity;BME280_pressure;Samples;Min_cycle;Max_cycle;Signal;HPM_P1;HPM_P2
2023/06/15 00:01:59;;;;;;;5.50;5.00;;;18.40;90.60;;;;;;5115026;28;20438;-70
2023/06/15 00:04:24;;;;;;;5.70;5.20;;;18.40;90.60;;;;;;5115099;28;20620;-72
2023/06/15 00:06:50;;;;;;;5.67;5.17;;;18.40;90.90;;;;;;5115249;28;20176;-71
2023/06/15 00:09:16;;;;;;;6.47;5.87;;;18.40;90.80;;;;;;5114696;28;20259;-71
2023/06/15 00:11:41;;;;;;;7.00;6.30;;;18.20;91.30;;;;;;5114553;28;20189;-69
2023/06/15 00:14:07;;;;;;;7.57;5.30;;;18.20;91.70;;;;;;5113611;28;20193;-68
2023/06/15 00:16:33;;;;;;;6.10;5.50;;;18.20;91.60;;;;;;5114791;28;20259;-68
2023/06/15 00:19:02;;;;;;;6.47;5.87;;;18.10;92.10;;;;;;5115162;28;20420;-69
2023/06/15 00:21:33;;;;;;;5.97;5.30;;;18.30;92.40;;;;;;5114744;28;20391;-70
2023/06/15 00:23:59;;;;;;;6.60;5.83;;;18.30;92.10;;;;;;5114484;28;20454;-70
2023/06/15 00:26:26;;;;;;;7.03;5.30;;;18.40;92.20;;;;;;5114197;28;20433;-69
2023/06/15 00:31:35;;;;;;;6.90;6.20;;;18.50;92.20;;;;;;5112754;28;20495;-69
2023/06/15 00:34:01;;;;;;;6.13;5.53;;;18.40;92.30;;;;;;5114278;28;20435;-69
2023/06/15 00:36:27;;;;;;;5.97;5.33;;;18.50;92.30;;;;;;5114140;28;20149;-70
2023/06/15 00:38:53;;;;;;;6.03;5.53;;;18.40;92.40;;;;;;5113893;28;20399;-70
2023/06/15 00:41:18;;;;;;;5.60;5.07;;;18.40;92.70;;;;;;5113520;28;20548;-70
2023/06/15 00:43:44;;;;;;;5.67;5.17;;;18.40;92.60;;;;;;5113687;28;20699;-70
2023/06/15 00:46:10;;;;;;;5.80;5.30;;;18.40;92.60;;;;;;5113515;28;20163;-70
2023/06/15 00:48:36;;;;;;;5.90;4.80;;;18.50;92.60;;;;;;5113578;28;20255;-70
2023/06/15 00:51:03;;;;;;;5.83;5.13;;;18.40;92.60;;;;;;5095346;28;20438;-70
2023/06/15 00:53:28;;;;;;;6.20;5.60;;;18.50;92.90;;;;;;5113956;28;20279;-70
2023/06/15 00:55:55;;;;;;;5.47;4.97;;;18.50;92.80;;;;;;5113522;28;20454;-69
2023/06/15 00:58:21;;;;;;;5.73;5.23;;;18.60;92.80;;;;;;5112660;28;20168;-71
2023/06/15 01:00:49;;;;;;;7.20;5.50;;;18.60;93.20;;;;;;5113484;28;20478;-70
2023/06/15 01:03:20;;;;;;;5.27;4.87;;;18.50;92.60;;;;;;5113107;28;20230;-70
2023/06/15 01:05:47;;;;;;;6.07;5.47;;;18.40;92.90;;;;;;5113861;28;20419;-70
2023/06/15 01:08:15;;;;;;;5.83;5.33;;;18.50;93.00;;;;;;5114222;28;20464;-70
2023/06/15 01:10:42;;;;;;;5.33;4.93;;;18.60;92.80;;;;;;5095468;28;20406;-71
2023/06/15 01:13:10;;;;;;;5.90;5.40;;;18.60;93.00;;;;;;5113385;28;20457;-71
2023/06/15 01:15:36;;;;;;;6.10;5.60;;;18.60;92.80;;;;;;5113271;28;20445;-70
2023/06/15 01:18:03;;;;;;;6.20;5.50;;;18.60;93.10;;;;;;5112827;28;20883;-71
2023/06/15 01:20:39;;;;;;;5.97;5.03;;;18.60;93.00;;;;;;5113406;28;20394;-71
2023/06/15 01:23:27;;;;;;;6.30;5.70;;;18.50;93.10;;;;;;5113668;28;20383;-71
2023/06/15 01:26:07;;;;;;;8.20;5.93;;;18.50;93.60;;;;;;5113050;28;20426;-71
2023/06/15 01:28:35;;;;;;;6.10;5.50;;;18.40;94.00;;;;;;5094620;28;20786;-71
2023/06/15 01:31:01;;;;;;;5.67;5.17;;;18.30;93.90;;;;;;5111866;28;20429;-71
2023/06/15 01:33:27;;;;;;;5.70;5.10;;;18.20;93.90;;;;;;5113294;28;20788;-70
2023/06/15 01:35:53;;;;;;;6.53;5.00;;;18.10;94.20;;;;;;5113390;28;20442;-70
2023/06/15 01:38:22;;;;;;;5.50;5.00;;;18.10;94.40;;;;;;5113223;28;20161;-70
2023/06/15 01:40:50;;;;;;;5.83;5.33;;;18.10;94.60;;;;;;5113069;28;20165;-70
2023/06/15 01:43:19;;;;;;;6.30;5.70;;;18.00;94.70;;;;;;5113031;28;20422;-71
2023/06/15 01:45:46;;;;;;;5.33;4.80;;;17.90;94.80;;;;;;5112503;28;20467;-70
2023/06/15 01:48:13;;;;;;;5.43;4.97;;;17.80;95.00;;;;;;5094399;28;20506;-70
2023/06/15 01:50:40;;;;;;;6.00;5.40;;;17.70;95.50;;;;;;5113336;28;20757;-71
2023/06/15 01:53:06;;;;;;;5.70;5.23;;;17.60;95.60;;;;;;5112704;28;20469;-71
2023/06/15 01:55:31;;;;;;;5.47;5.07;;;17.50;95.80;;;;;;5094671;28;20426;-70
2023/06/15 01:57:57;;;;;;;6.13;5.30;;;17.50;96.10;;;;;;5113329;28;20694;-69
2023/06/15 02:00:24;;;;;;;5.70;5.10;;;17.60;96.00;;;;;;5113385;28;20295;-69
2023/06/15 02:02:50;;;;;;;5.70;5.03;;;17.60;96.10;;;;;;5112989;28;20169;-69
2023/06/15 02:05:17;;;;;;;6.67;5.20;;;17.50;96.30;;;;;;5094619;28;20498;-70
2023/06/15 02:07:42;;;;;;;6.43;5.33;;;17.50;96.60;;;;;;5112798;28;20508;-70
2023/06/15 02:10:08;;;;;;;6.30;5.70;;;17.50;96.50;;;;;;5113040;28;20936;-70
2023/06/15 02:12:34;;;;;;;5.80;5.20;;;17.40;96.60;;;;;;5113078;28;20553;-70
2023/06/15 02:15:01;;;;;;;5.87;5.27;;;17.40;97.10;;;;;;5113163;28;20414;-70
2023/06/15 02:17:30;;;;;;;6.10;5.60;;;17.40;97.10;;;;;;5112992;28;20157;-70
2023/06/15 02:19:57;;;;;;;6.50;5.37;;;17.40;97.20;;;;;;5113031;28;20398;-70
2023/06/15 02:22:22;;;;;;;7.07;5.90;;;17.40;97.50;;;;;;5113025;28;20406;-69
2023/06/15 02:24:48;;;;;;;6.70;5.20;;;17.10;97.50;;;;;;5113026;28;20512;-69
2023/06/15 02:27:14;;;;;;;7.57;5.60;;;17.00;98.00;;;;;;5113213;28;20173;-69
2023/06/15 02:29:40;;;;;;;5.73;5.23;;;17.00;98.20;;;;;;5112668;28;20169;-69
2023/06/15 02:32:06;;;;;;;5.40;4.90;;;17.00;98.30;;;;;;5110871;28;20215;-70
2023/06/15 02:34:32;;;;;;;7.83;5.70;;;16.80;98.80;;;;;;5112527;28;20212;-69
2023/06/15 02:36:58;;;;;;;5.60;5.20;;;16.80;98.80;;;;;;5112900;28;20185;-69
2023/06/15 02:39:24;;;;;;;5.90;5.30;;;16.70;99.20;;;;;;5116638;28;20395;-69
2023/06/15 02:41:50;;;;;;;6.77;6.17;;;16.70;99.50;;;;;;5116624;28;20923;-70
2023/06/15 02:44:15;;;;;;;6.50;5.93;;;16.70;99.50;;;;;;5116241;28;20666;-69
2023/06/15 02:46:42;;;;;;;5.90;4.83;;;16.70;99.60;;;;;;5115890;28;20177;-69
2023/06/15 02:49:08;;;;;;;6.63;6.03;;;16.70;99.90;;;;;;5116358;28;20205;-70
2023/06/15 02:51:34;;;;;;;8.30;5.70;;;16.70;99.90;;;;;;5097755;28;20454;-70
2023/06/15 02:54:00;;;;;;;6.27;5.70;;;16.70;99.90;;;;;;5115940;28;20414;-69
2023/06/15 02:56:29;;;;;;;5.83;5.33;;;16.70;99.90;;;;;;5116219;28;20890;-70
2023/06/15 02:58:54;;;;;;;6.63;5.80;;;16.70;99.90;;;;;;5116697;28;20524;-70
2023/06/15 03:01:23;;;;;;;6.23;5.33;;;16.70;99.90;;;;;;5115784;28;20399;-69
2023/06/15 03:03:50;;;;;;;6.43;5.83;;;16.70;99.90;;;;;;5116460;28;20205;-70
2023/06/15 03:06:16;;;;;;;6.33;5.70;;;16.70;99.90;;;;;;5098196;28;20402;-69
2023/06/15 03:08:42;;;;;;;6.13;5.63;;;16.70;99.90;;;;;;5115981;28;20490;-68
2023/06/15 03:11:08;;;;;;;6.87;6.37;;;16.70;99.90;;;;;;5116522;28;20394;-69
2023/06/15 03:13:35;;;;;;;7.10;6.40;;;16.70;99.90;;;;;;5115699;28;20481;-70
2023/06/15 03:16:07;;;;;;;6.43;5.93;;;16.60;99.90;;;;;;5115102;28;20393;-69
2023/06/15 03:18:32;;;;;;;6.50;5.37;;;16.50;99.90;;;;;;5097336;28;20515;-69
2023/06/15 03:20:58;;;;;;;6.20;5.57;;;16.50;99.90;;;;;;5115593;28;20419;-70
2023/06/15 03:23:24;;;;;;;6.37;5.80;;;16.60;99.90;;;;;;5115715;28;20169;-70
2023/06/15 03:25:51;;;;;;;6.47;5.87;;;16.50;99.90;;;;;;5115546;28;20199;-70
2023/06/15 03:28:24;;;;;;;7.20;5.80;;;16.40;99.90;;;;;;5115654;28;20399;-69
2023/06/15 03:30:53;;;;;;;6.20;5.60;;;16.30;99.90;;;;;;5096192;28;20425;-69
2023/06/15 03:33:21;;;;;;;5.33;4.93;;;16.30;99.90;;;;;;5115058;28;20449;-69
2023/06/15 03:35:50;;;;;;;5.90;5.40;;;16.30;99.90;;;;;;5115087;28;20787;-69
2023/06/15 03:38:16;;;;;;;6.23;5.63;;;16.30;99.90;;;;;;5115357;28;20402;-70
2023/06/15 03:40:42;;;;;;;5.70;5.13;;;16.40;99.90;;;;;;5115194;28;20401;-70
2023/06/15 03:43:09;;;;;;;6.70;5.50;;;16.40;99.90;;;;;;5097052;28;20463;-70
2023/06/15 03:45:35;;;;;;;5.67;5.17;;;16.40;99.90;;;;;;5114883;28;20970;-70
2023/06/15 03:48:00;;;;;;;8.93;5.73;;;16.30;99.90;;;;;;5114571;28;20555;-70
2023/06/15 03:50:26;;;;;;;6.30;5.80;;;16.30;99.90;;;;;;5115155;28;20179;-70
2023/06/15 03:52:52;;;;;;;6.20;5.70;;;16.40;99.90;;;;;;5115069;28;20194;-70
2023/06/15 03:55:17;;;;;;;6.10;5.50;;;16.40;99.90;;;;;;5096531;28;20195;-70
2023/06/15 03:57:43;;;;;;;7.00;5.60;;;16.40;99.90;;;;;;5115186;28;20168;-70
2023/06/15 04:00:09;;;;;;;5.70;5.20;;;16.40;99.90;;;;;;5115002;28;20531;-70
2023/06/15 04:02:35;;;;;;;6.63;6.03;;;16.50;99.90;;;;;;5114343;28;20618;-70
2023/06/15 04:05:02;;;;;;;6.93;6.33;;;16.70;99.90;;;;;;5114648;28;20429;-70
2023/06/15 04:07:28;;;;;;;5.43;4.93;;;16.80;99.90;;;;;;5114891;28;20509;-70
2023/06/15 04:09:54;;;;;;;7.70;6.17;;;16.90;99.90;;;;;;5115002;28;20414;-69
2023/06/15 04:12:21;;;;;;;5.63;5.13;;;17.00;99.90;;;;;;5114889;28;20987;-69
2023/06/15 04:14:46;;;;;;;5.40;5.00;;;17.10;99.90;;;;;;5114572;28;20196;-70
2023/06/15 04:17:13;;;;;;;5.57;5.17;;;17.20;99.90;;;;;;5114222;28;20401;-69
2023/06/15 04:19:38;;;;;;;6.80;6.10;;;17.10;99.90;;;;;;5114862;28;20169;-70
2023/06/15 04:22:05;;;;;;;6.30;5.80;;;17.30;99.90;;;;;;5114862;28;20915;-69
2023/06/15 04:24:30;;;;;;;6.07;5.57;;;17.60;99.90;;;;;;5114578;28;20240;-69
2023/06/15 04:26:57;;;;;;;6.43;5.60;;;17.80;99.90;;;;;;5114569;28;20772;-70
2023/06/15 04:29:23;;;;;;;8.30;6.03;;;17.90;99.90;;;;;;5114769;28;20168;-69
2023/06/15 04:31:54;;;;;;;5.70;5.17;;;18.10;99.90;;;;;;5112696;28;20960;-69
2023/06/15 04:34:22;;;;;;;6.67;6.10;;;18.20;99.70;;;;;;5114187;28;20279;-69
2023/06/15 04:36:48;;;;;;;6.03;5.53;;;18.40;99.70;;;;;;5114145;28;20446;-69
2023/06/15 04:39:14;;;;;;;6.20;5.60;;;18.40;99.50;;;;;;5115221;28;20398;-70
2023/06/15 04:41:40;;;;;;;6.20;5.60;;;18.60;99.20;;;;;;5114915;28;20421;-69
2023/06/15 04:44:06;;;;;;;6.10;5.50;;;18.80;99.60;;;;;;5115003;28;20184;-70
2023/06/15 04:46:32;;;;;;;5.70;5.13;;;18.90;98.90;;;;;;5114105;28;20536;-70
2023/06/15 04:48:58;;;;;;;6.43;5.83;;;19.10;99.00;;;;;;5114440;28;20530;-70
2023/06/15 04:51:23;;;;;;;5.10;4.70;;;19.30;98.50;;;;;;5096282;28;20407;-70
2023/06/15 04:53:49;;;;;;;6.53;5.80;;;19.40;98.30;;;;;;5113564;28;20446;-69
2023/06/15 04:56:15;;;;;;;6.63;5.73;;;19.60;97.90;;;;;;5114409;28;20164;-70
2023/06/15 04:58:41;;;;;;;5.83;5.33;;;19.60;96.80;;;;;;5114951;28;20409;-70
2023/06/15 05:01:07;;;;;;;6.53;5.97;;;19.60;97.50;;;;;;5111702;28;20270;-70
2023/06/15 05:03:33;;;;;;;7.10;6.40;;;19.70;97.40;;;;;;5095355;28;20180;-69
2023/06/15 05:05:58;;;;;;;6.47;5.87;;;19.70;95.90;;;;;;5113571;28;20188;-70
2023/06/15 05:08:24;;;;;;;8.17;5.57;;;19.90;95.70;;;;;;5114363;28;20451;-69
2023/06/15 05:10:50;;;;;;;5.93;5.40;;;19.50;95.50;;;;;;5114904;28;20169;-70
2023/06/15 05:13:16;;;;;;;8.10;6.30;;;19.40;95.70;;;;;;5114878;28;20192;-70
2023/06/15 05:15:41;;;;;;;5.77;5.30;;;19.50;95.70;;;;;;5113438;28;20188;-70
2023/06/15 05:18:07;;;;;;;6.70;6.13;;;19.70;95.50;;;;;;5113019;28;20394;-70
2023/06/15 05:20:32;;;;;;;7.13;6.53;;;20.00;95.90;;;;;;5113534;28;20175;-70
2023/06/15 05:22:58;;;;;;;6.77;6.17;;;20.00;95.40;;;;;;5113270;28;20203;-70
2023/06/15 05:25:23;;;;;;;6.40;5.80;;;20.10;95.90;;;;;;5113107;28;20249;-70
2023/06/15 05:27:49;;;;;;;6.23;5.83;;;20.10;94.80;;;;;;5113388;28;20172;-70
2023/06/15 05:30:15;;;;;;;7.73;7.03;;;19.60;95.00;;;;;;5113278;28;20176;-71
2023/06/15 05:32:40;;;;;;;7.97;6.20;;;19.40;95.60;;;;;;5111810;28;20292;-70
2023/06/15 05:35:07;;;;;;;6.90;6.20;;;19.50;95.40;;;;;;5113525;28;20462;-70
2023/06/15 05:37:37;;;;;;;10.13;6.37;;;19.90;95.90;;;;;;5113403;28;20168;-70
2023/06/15 05:40:03;;;;;;;7.23;6.17;;;20.10;96.10;;;;;;5113212;28;20410;-70
2023/06/15 05:42:29;;;;;;;7.10;5.87;;;20.10;95.80;;;;;;5113438;28;20410;-70
2023/06/15 05:44:55;;;;;;;8.07;6.60;;;20.20;96.10;;;;;;5113522;28;20426;-71
2023/06/15 05:47:21;;;;;;;6.43;5.83;;;20.20;95.20;;;;;;5112441;28;20168;-70
2023/06/15 05:49:46;;;;;;;5.80;5.27;;;20.10;94.70;;;;;;5113843;28;20180;-69
2023/06/15 05:52:14;;;;;;;7.40;6.67;;;20.10;94.80;;;;;;5113515;28;20686;-70
2023/06/15 05:54:41;;;;;;;6.73;6.13;;;19.90;94.80;;;;;;5113350;28;20702;-71
2023/06/15 05:57:07;;;;;;;7.23;6.43;;;19.70;95.30;;;;;;5113681;28;20501;-71
2023/06/15 05:59:32;;;;;;;7.20;5.93;;;19.60;95.10;;;;;;5113225;28;20770;-71
2023/06/15 06:01:58;;;;;;;7.33;6.60;;;19.60;94.80;;;;;;5112765;28;20817;-70
2023/06/15 06:04:24;;;;;;;7.07;6.40;;;19.80;94.30;;;;;;5113085;28;20243;-70
2023/06/15 06:06:49;;;;;;;6.97;6.37;;;19.90;94.40;;;;;;5112910;28;20168;-70
2023/06/15 06:09:15;;;;;;;6.13;5.47;;;19.90;94.00;;;;;;5113998;28;20176;-70
2023/06/15 06:11:40;;;;;;;7.90;6.60;;;19.80;94.10;;;;;;5114944;28;20619;-70
2023/06/15 06:14:06;;;;;;;6.17;5.67;;;19.70;93.70;;;;;;5117138;28;20662;-71
2023/06/15 06:16:31;;;;;;;6.30;5.77;;;20.00;94.00;;;;;;5116359;28;20702;-71
2023/06/15 06:18:57;;;;;;;6.27;5.33;;;20.00;93.60;;;;;;5117068;28;20536;-70
2023/06/15 06:21:22;;;;;;;6.60;6.00;;;20.00;93.60;;;;;;5116728;28;20542;-70
2023/06/15 06:23:49;;;;;;;9.97;6.70;;;19.90;93.60;;;;;;5117091;28;20177;-70
2023/06/15 06:26:14;;;;;;;6.47;5.20;;;19.90;93.30;;;;;;5117000;28;20179;-71
2023/06/15 06:28:40;;;;;;;7.40;6.70;;;20.00;93.30;;;;;;5117215;28;20403;-71
2023/06/15 06:31:06;;;;;;;9.63;6.00;;;20.10;93.70;;;;;;5115593;28;20188;-71
2023/06/15 06:33:31;;;;;;;5.87;5.27;;;20.00;93.00;;;;;;5116168;28;20192;-71
2023/06/15 06:35:58;;;;;;;6.50;5.90;;;20.20;92.80;;;;;;5116269;28;20654;-70
2023/06/15 06:38:23;;;;;;;5.77;5.27;;;20.30;92.70;;;;;;5117173;28;20477;-71
2023/06/15 06:40:49;;;;;;;6.67;6.03;;;20.30;92.70;;;;;;5117389;28;20213;-70
2023/06/15 06:43:15;;;;;;;7.10;6.20;;;20.50;92.90;;;;;;5116946;28;20164;-71
2023/06/15 06:45:40;;;;;;;6.37;5.53;;;20.50;92.20;;;;;;5116555;28;20189;-71
2023/06/15 06:48:06;;;;;;;5.93;5.43;;;20.60;92.80;;;;;;5097683;28;20418;-70
2023/06/15 06:50:31;;;;;;;7.53;5.77;;;20.60;92.20;;;;;;5117098;28;20240;-71
2023/06/15 06:52:57;;;;;;;6.70;6.00;;;20.60;92.60;;;;;;5115931;28;20188;-70
2023/06/15 06:55:23;;;;;;;7.30;6.50;;;20.60;92.30;;;;;;5117163;28;20189;-69
2023/06/15 06:57:49;;;;;;;6.20;5.60;;;20.50;92.20;;;;;;5116973;28;20203;-70
2023/06/15 07:00:15;;;;;;;6.83;6.23;;;20.40;92.50;;;;;;5116451;28;20473;-70
2023/06/15 07:02:41;;;;;;;8.20;5.93;;;20.60;92.90;;;;;;5097989;28;20172;-70
2023/06/15 07:05:06;;;;;;;6.30;5.80;;;20.60;92.50;;;;;;5116520;28;20435;-70
2023/06/15 07:07:32;;;;;;;6.30;5.63;;;20.60;92.20;;;;;;5115359;28;20169;-70
2023/06/15 07:09:58;;;;;;;8.37;6.37;;;20.60;92.40;;;;;;5116464;28;20244;-70
2023/06/15 07:12:23;;;;;;;7.00;6.40;;;20.20;92.70;;;;;;5116682;28;20195;-72
2023/06/15 07:14:49;;;;;;;6.87;6.27;;;20.10;93.00;;;;;;5116229;28;20657;-71
2023/06/15 07:17:15;;;;;;;8.43;6.60;;;20.00;93.50;;;;;;5116096;28;20578;-72
2023/06/15 07:19:41;;;;;;;6.13;5.63;;;20.20;93.30;;;;;;5116406;28;20397;-71
2023/06/15 07:22:07;;;;;;;7.20;6.50;;;20.40;93.00;;;;;;5115487;28;20176;-71
2023/06/15 07:24:32;;;;;;;6.63;6.03;;;20.40;92.90;;;;;;5097328;28;20434;-71
2023/06/15 07:26:58;;;;;;;6.73;6.23;;;20.30;93.10;;;;;;5116118;28;20233;-69
2023/06/15 07:29:24;;;;;;;6.80;6.20;;;20.40;93.10;;;;;;5116481;28;20172;-70
2023/06/15 07:31:50;;;;;;;6.50;5.80;;;20.30;93.30;;;;;;5116815;28;20164;-71
2023/06/15 07:34:16;;;;;;;7.13;6.43;;;20.30;93.20;;;;;;5118526;28;20453;-72
2023/06/15 07:36:41;;;;;;;6.90;6.27;;;20.40;93.40;;;;;;5119376;28;20160;-71
2023/06/15 07:39:07;;;;;;;6.90;6.30;;;20.40;93.50;;;;;;5118517;28;20295;-71
2023/06/15 07:41:32;;;;;;;8.83;6.57;;;20.80;93.60;;;;;;5118290;28;20168;-71
2023/06/15 07:43:58;;;;;;;8.80;6.13;;;21.00;92.50;;;;;;5101481;28;20192;-72
2023/06/15 07:46:23;;;;;;;6.93;6.37;;;20.50;93.00;;;;;;5116875;28;20179;-70
2023/06/15 07:48:49;;;;;;;7.40;6.47;;;20.80;93.00;;;;;;5115595;28;20259;-69
2023/06/15 07:51:14;;;;;;;7.90;7.20;;;21.00;92.70;;;;;;5115481;28;20204;-69
2023/06/15 07:53:40;;;;;;;8.40;6.47;;;20.90;92.60;;;;;;5114960;28;20207;-69
2023/06/15 07:56:05;;;;;;;7.33;6.57;;;20.90;92.20;;;;;;5115156;28;20164;-69
2023/06/15 07:58:31;;;;;;;5.87;5.37;;;20.90;92.20;;;;;;5116141;28;20172;-71
2023/06/15 08:00:56;;;;;;;8.30;6.23;;;20.80;92.10;;;;;;5115822;28;20237;-70
2023/06/15 08:03:22;;;;;;;6.83;6.33;;;20.70;92.40;;;;;;5115002;28;20165;-70
2023/06/15 08:05:48;;;;;;;6.80;6.20;;;20.90;92.20;;;;;;5115061;28;20208;-70
2023/06/15 08:08:13;;;;;;;6.73;5.70;;;21.00;92.30;;;;;;5114875;28;20406;-70
2023/06/15 08:10:39;;;;;;;6.57;5.97;;;21.40;91.70;;;;;;5115192;28;20201;-69
2023/06/15 08:13:06;;;;;;;6.77;6.17;;;21.40;91.90;;;;;;5115480;28;20192;-70
2023/06/15 08:15:32;;;;;;;6.63;6.03;;;21.80;91.80;;;;;;5115064;28;20500;-70
2023/06/15 08:17:58;;;;;;;8.27;6.07;;;21.90;90.60;;;;;;5114254;28;20401;-70
2023/06/15 08:20:23;;;;;;;7.63;6.80;;;21.80;90.80;;;;;;5115066;28;20167;-70
2023/06/15 08:22:49;;;;;;;6.13;5.63;;;21.90;90.90;;;;;;5114526;28;20164;-69
2023/06/15 08:25:15;;;;;;;6.97;6.23;;;22.10;91.20;;;;;;5114320;28;20184;-69
2023/06/15 08:27:42;;;;;;;7.97;6.20;;;21.90;90.80;;;;;;5114456;28;20394;-71
2023/06/15 08:30:08;;;;;;;6.67;5.97;;;21.90;91.00;;;;;;5116192;28;20410;-70
2023/06/15 08:32:33;;;;;;;8.00;6.00;;;21.80;90.60;;;;;;5115027;28;20452;-71
2023/06/15 08:34:59;;;;;;;6.77;6.07;;;21.70;90.60;;;;;;5115694;28;20502;-72
2023/06/15 08:37:26;;;;;;;6.90;5.40;;;21.90;90.50;;;;;;5115961;28;20255;-71
2023/06/15 08:39:51;;;;;;;8.60;6.27;;;22.00;90.30;;;;;;5116049;28;20165;-70
2023/06/15 08:42:17;;;;;;;8.43;6.80;;;22.00;91.00;;;;;;5116744;28;20540;-71
2023/06/15 08:44:46;;;;;;;6.20;5.60;;;22.20;90.20;;;;;;5120684;28;20681;-71
2023/06/15 08:47:12;;;;;;;5.90;5.37;;;22.40;90.00;;;;;;5115387;28;20180;-71
2023/06/15 08:49:38;;;;;;;9.30;6.13;;;22.30;89.80;;;;;;5114488;28;20789;-71
2023/06/15 08:52:05;;;;;;;8.03;5.90;;;22.70;89.80;;;;;;5114210;28;20472;-68
2023/06/15 08:54:31;;;;;;;6.00;5.50;;;22.90;88.90;;;;;;5114487;28;20487;-70
2023/06/15 08:56:57;;;;;;;6.80;6.07;;;22.90;88.50;;;;;;5116399;28;20394;-71
2023/06/15 08:59:23;;;;;;;8.50;5.63;;;22.90;88.70;;;;;;5115450;28;20964;-69
2023/06/15 09:01:53;;;;;;;6.33;5.73;;;23.20;87.70;;;;;;5114128;28;20267;-69
2023/06/15 09:04:18;;;;;;;6.50;5.93;;;23.30;87.10;;;;;;5114380;28;20275;-71
2023/06/15 09:06:44;;;;;;;6.90;5.30;;;23.20;86.70;;;;;;5113900;28;20439;-71
2023/06/15 09:09:09;;;;;;;5.33;4.83;;;23.40;85.20;;;;;;5113952;28;20535;-69
2023/06/15 09:11:46;;;;;;;6.57;6.00;;;23.40;85.70;;;;;;5113444;28;20251;-70
2023/06/15 09:14:11;;;;;;;10.83;6.37;;;23.60;85.00;;;;;;5096956;28;20196;-71
2023/06/15 09:16:39;;;;;;;5.60;5.00;;;23.20;85.80;;;;;;5115864;28;20417;-70
2023/06/15 09:19:11;;;;;;;6.43;5.83;;;23.20;86.70;;;;;;5115709;28;20181;-71
2023/06/15 09:21:44;;;;;;;6.10;5.50;;;23.20;86.30;;;;;;5116308;28;20919;-71
2023/06/15 09:24:11;;;;;;;6.30;5.70;;;22.70;87.10;;;;;;5114664;28;20426;-69
2023/06/15 09:26:39;;;;;;;6.40;5.80;;;22.80;87.30;;;;;;5114008;28;20476;-70
2023/06/15 09:29:11;;;;;;;5.77;5.33;;;23.00;86.60;;;;;;5113803;28;20410;-71
2023/06/15 09:31:37;;;;;;;9.20;5.70;;;23.40;86.10;;;;;;5112572;28;20418;-70
2023/06/15 09:34:04;;;;;;;6.20;5.13;;;23.50;84.10;;;;;;5113114;28;20506;-70
2023/06/15 09:36:47;;;;;;;5.83;5.33;;;23.70;83.60;;;;;;5114402;28;20163;-69
2023/06/15 09:39:14;;;;;;;6.40;5.13;;;24.20;83.30;;;;;;5113997;28;20792;-70
2023/06/15 09:42:00;;;;;;;5.57;5.07;;;24.10;80.10;;;;;;5113771;28;20456;-70
2023/06/15 09:44:26;;;;;;;9.03;5.40;;;24.30;80.20;;;;;;5113008;28;20513;-70
2023/06/15 09:46:54;;;;;;;6.50;5.57;;;24.10;79.70;;;;;;5112564;28;20421;-70
2023/06/15 09:49:25;;;;;;;5.00;4.57;;;24.10;79.00;;;;;;5113032;28;20493;-70
2023/06/15 09:51:51;;;;;;;6.03;4.77;;;24.30;79.30;;;;;;5113864;28;20418;-70
2023/06/15 09:54:22;;;;;;;4.63;4.17;;;24.50;76.90;;;;;;5113514;28;20908;-69
2023/06/15 09:56:50;;;;;;;5.00;4.60;;;24.20;75.50;;;;;;5113237;28;20394;-68
2023/06/15 09:59:16;;;;;;;5.50;4.97;;;24.00;74.80;;;;;;5113031;28;20900;-70
2023/06/15 10:01:46;;;;;;;4.80;4.40;;;24.20;75.70;;;;;;5113480;28;20406;-70
2023/06/15 10:04:13;;;;;;;5.27;4.87;;;24.40;74.80;;;;;;5112910;28;20433;-70
2023/06/15 10:06:41;;;;;;;5.77;5.10;;;24.60;73.60;;;;;;5113222;28;20406;-71
2023/06/15 10:09:09;;;;;;;4.30;4.00;;;24.60;71.60;;;;;;5113038;28;20493;-70
2023/06/15 10:11:42;;;;;;;7.17;4.07;;;24.60;69.00;;;;;;5113256;28;20472;-70
2023/06/15 10:14:14;;;;;;;4.77;4.30;;;24.90;70.20;;;;;;5112753;28;20437;-70
2023/06/15 10:16:42;;;;;;;5.17;4.10;;;25.10;71.00;;;;;;5112277;28;20900;-70
2023/06/15 10:19:12;;;;;;;4.20;3.90;;;25.20;70.20;;;;;;5112282;28;20398;-69
2023/06/15 10:21:42;;;;;;;4.40;4.00;;;25.30;67.60;;;;;;5113242;28;20740;-69
2023/06/15 10:24:13;;;;;;;4.90;4.50;;;25.30;69.50;;;;;;5112995;28;20414;-69
2023/06/15 10:26:40;;;;;;;4.27;3.97;;;25.40;66.20;;;;;;5112586;28;20948;-69
2023/06/15 10:29:12;;;;;;;4.20;3.87;;;25.40;63.60;;;;;;5113106;28;20489;-69
2023/06/15 10:31:41;;;;;;;4.83;4.27;;;25.50;62.80;;;;;;5111851;28;21001;-69
2023/06/15 10:34:19;;;;;;;4.57;4.17;;;25.40;63.30;;;;;;5112128;28;20438;-70
2023/06/15 10:36:59;;;;;;;4.73;4.23;;;25.40;64.70;;;;;;5113188;28;20382;-70
2023/06/15 10:39:41;;;;;;;5.00;4.60;;;25.50;64.00;;;;;;5112913;28;20800;-70
2023/06/15 10:42:10;;;;;;;5.77;5.20;;;25.60;63.70;;;;;;5112670;28;20371;-69
2023/06/15 10:44:36;;;;;;;5.10;4.70;;;25.30;66.20;;;;;;5113036;28;20436;-70
2023/06/15 10:47:09;;;;;;;4.63;4.23;;;25.10;66.90;;;;;;5112463;28;20402;-70
2023/06/15 10:49:35;;;;;;;9.03;4.70;;;25.40;65.60;;;;;;5093988;28;20172;-70
2023/06/15 10:52:04;;;;;;;4.60;4.20;;;25.60;65.70;;;;;;5112873;28;20974;-70
2023/06/15 10:54:29;;;;;;;4.50;4.20;;;25.80;63.90;;;;;;5112738;28;20563;-70
2023/06/15 10:56:57;;;;;;;5.93;4.20;;;25.20;64.90;;;;;;5112725;28;20390;-70
2023/06/15 10:59:49;;;;;;;4.77;4.20;;;25.10;64.40;;;;;;5115447;28;20153;-70
2023/06/15 11:02:31;;;;;;;4.40;4.10;;;25.30;63.50;;;;;;5116002;28;21003;-70
2023/06/15 11:05:05;;;;;;;6.80;4.80;;;25.30;63.70;;;;;;5116218;28;20414;-71
2023/06/15 11:07:35;;;;;;;5.20;4.70;;;25.70;62.80;;;;;;5115907;28;20398;-70
2023/06/15 11:10:03;;;;;;;7.20;4.70;;;26.20;61.30;;;;;;5116502;28;20730;-70
2023/06/15 11:12:36;;;;;;;4.90;4.50;;;25.90;63.30;;;;;;5116119;28;20442;-69
2023/06/15 11:15:07;;;;;;;4.70;4.20;;;26.00;63.20;;;;;;5116163;28;21014;-70
2023/06/15 11:17:51;;;;;;;5.20;4.80;;;26.30;63.20;;;;;;5115651;28;20881;-70
2023/06/15 11:20:44;;;;;;;4.90;4.40;;;26.80;63.20;;;;;;5116091;28;20397;-70
2023/06/15 11:23:16;;;;;;;4.63;4.10;;;26.70;59.80;;;;;;5116386;28;20945;-69
2023/06/15 11:25:44;;;;;;;6.03;4.07;;;26.60;60.00;;;;;;5116111;28;20862;-70
2023/06/15 11:28:11;;;;;;;6.00;4.07;;;26.50;60.60;;;;;;5116054;28;20398;-70
2023/06/15 11:30:41;;;;;;;5.57;5.07;;;26.80;61.10;;;;;;5116164;28;20750;-70
2023/06/15 11:33:11;;;;;;;4.37;4.00;;;28.00;58.20;;;;;;5095146;28;20573;-69
2023/06/15 11:35:37;;;;;;;5.73;4.00;;;29.40;53.70;;;;;;5095687;28;20447;-72
2023/06/15 11:38:07;;;;;;;4.40;4.10;;;30.30;51.80;;;;;;5096052;28;20414;-73
2023/06/15 11:40:33;;;;;;;3.87;3.47;;;31.00;51.20;;;;;;5095764;28;20438;-72
2023/06/15 11:42:59;;;;;;;4.97;4.47;;;30.90;49.00;;;;;;5095093;28;20485;-71
2023/06/15 11:45:25;;;;;;;3.90;3.60;;;30.70;50.20;;;;;;5095120;28;20428;-73
2023/06/15 11:47:51;;;;;;;6.73;4.10;;;30.90;47.70;;;;;;5094906;28;20166;-72
2023/06/15 11:50:18;;;;;;;3.87;3.57;;;31.20;48.30;;;;;;5095303;28;20407;-69
2023/06/15 11:52:45;;;;;;;3.83;3.53;;;31.20;47.50;;;;;;5076837;28;20197;-73
2023/06/15 11:55:11;;;;;;;5.23;3.63;;;31.60;45.10;;;;;;5094601;28;20416;-72
2023/06/15 11:57:38;;;;;;;4.10;3.40;;;31.40;45.50;;;;;;5094837;28;20495;-71
2023/06/15 12:00:07;;;;;;;4.03;3.73;;;30.80;45.30;;;;;;5094753;28;20803;-71
2023/06/15 12:02:37;;;;;;;3.90;3.60;;;30.10;47.20;;;;;;5094215;28;20812;-68
2023/06/15 12:05:04;;;;;;;4.80;3.37;;;29.20;48.90;;;;;;5095140;28;20423;-72
2023/06/15 12:07:35;;;;;;;4.27;3.87;;;29.40;48.80;;;;;;5094700;28;20411;-72
2023/06/15 12:10:03;;;;;;;3.67;3.37;;;28.90;48.80;;;;;;5095399;28;20460;-72
2023/06/15 12:12:29;;;;;;;4.40;3.73;;;28.90;49.70;;;;;;5095768;28;20454;-72
2023/06/15 12:14:55;;;;;;;4.10;3.70;;;28.90;49.90;;;;;;5094758;28;20419;-72
2023/06/15 12:17:29;;;;;;;7.07;4.10;;;30.00;49.30;;;;;;5107330;28;20825;-71
2023/06/15 12:20:11;;;;;;;7.10;3.87;;;32.40;47.60;;;;;;5114692;28;20160;-71
2023/06/15 12:22:41;;;;;;;6.50;4.20;;;32.80;46.50;;;;;;5115110;28;20390;-71
2023/06/15 12:25:07;;;;;;;4.50;4.10;;;33.20;45.90;;;;;;5115236;28;20421;-71
2023/06/15 12:27:39;;;;;;;4.23;3.90;;;31.90;45.90;;;;;;5115592;28;20402;-70
2023/06/15 12:30:09;;;;;;;4.90;3.93;;;31.60;45.50;;;;;;5117145;28;20478;-71
2023/06/15 12:32:35;;;;;;;4.33;3.93;;;30.60;47.40;;;;;;5114465;28;20472;-73
2023/06/15 12:35:01;;;;;;;3.40;3.10;;;30.70;46.30;;;;;;5114783;28;20445;-71
2023/06/15 12:37:28;;;;;;;3.60;3.40;;;32.20;46.10;;;;;;5114593;28;20394;-72
2023/06/15 12:39:54;;;;;;;6.40;4.10;;;33.40;43.50;;;;;;5115324;28;20410;-69
2023/06/15 12:42:20;;;;;;;3.80;3.50;;;32.40;44.50;;;;;;5114584;28;20447;-72
2023/06/15 12:44:46;;;;;;;6.13;4.00;;;33.70;42.30;;;;;;5114517;28;20426;-73
2023/06/15 12:47:11;;;;;;;3.90;3.60;;;35.00;41.30;;;;;;5114310;28;20168;-71
2023/06/15 12:49:37;;;;;;;3.93;3.63;;;35.20;40.50;;;;;;5114038;28;20540;-71
2023/06/15 12:52:03;;;;;;;4.20;3.60;;;33.90;42.40;;;;;;5114450;28;20549;-70